sensor_id;sensor_type;location;lat;lon;timestamp;P1;durP1;ratioP1;P2;durP2;ratioP2
48122;SDS011;33907;47.426;18.906;2023-04-15T00:02:14;9.93;;;8.75;;
48122;SDS011;33907;47.426;18.906;2023-04-15T00:04:45;10.20;;;8.02;;
48122;SDS011;33907;47.426;18.906;2023-04-15T00:07:13;12.52;;;9.95;;
48122;SDS011;33907;47.426;18.906;2023-04-15T00:09:41;11.07;;;8.70;;
48122;SDS011;33907;47.426;18.906;2023-04-15T00:12:09;11.63;;;8.20;;
48122;SDS011;33907;47.426;18.906;2023-04-15T00:14:37;10.38;;;8.35;;
48122;SDS011;33907;47.426;18.906;2023-04-15T00:17:05;10.98;;;8.98;;
48122;SDS011;33907;47.426;18.906;2023-04-15T00:19:33;10.68;;;8.57;;
48122;SDS011;33907;47.426;18.906;2023-04-15T00:22:01;10.48;;;8.52;;
48122;SDS011;33907;47.426;18.906;2023-04-15T00:24:28;10.85;;;8.82;;
48122;SDS011;33907;47.426;18.906;2023-04-15T00:26:57;11.02;;;9.05;;
48122;SDS011;33907;47.426;18.906;2023-04-15T00:29:25;11.35;;;8.82;;
48122;SDS011;33907;47.426;18.906;2023-04-15T00:31:52;11.25;;;9.23;;
48122;SDS011;33907;47.426;18.906;2023-04-15T00:34:20;13.05;;;9.85;;
48122;SDS011;33907;47.426;18.906;2023-04-15T00:36:47;12.05;;;10.15;;
48122;SDS011;33907;47.426;18.906;2023-04-15T00:39:15;11.93;;;10.57;;
48122;SDS011;33907;47.426;18.906;2023-04-15T00:41:44;11.57;;;9.10;;
48122;SDS011;33907;47.426;18.906;2023-04-15T00:44:12;11.05;;;9.50;;
48122;SDS011;33907;47.426;18.906;2023-04-15T00:46:39;11.98;;;9.63;;
48122;SDS011;33907;47.426;18.906;2023-04-15T00:49:07;10.82;;;9.15;;
48122;SDS011;33907;47.426;18.906;2023-04-15T00:51:35;12.88;;;9.60;;
48122;SDS011;33907;47.426;18.906;2023-04-15T00:54:03;11.68;;;9.15;;
48122;SDS011;33907;47.426;18.906;2023-04-15T00:56:35;11.98;;;9.45;;
48122;SDS011;33907;47.426;18.906;2023-04-15T00:59:05;12.20;;;8.77;;
48122;SDS011;33907;47.426;18.906;2023-04-15T01:01:34;12.37;;;8.57;;
48122;SDS011;33907;47.426;18.906;2023-04-15T01:04:02;11.98;;;9.35;;
48122;SDS011;33907;47.426;18.906;2023-04-15T01:06:30;10.15;;;8.00;;
48122;SDS011;33907;47.426;18.906;2023-04-15T01:08:58;12.30;;;9.32;;
48122;SDS011;33907;47.426;18.906;2023-04-15T01:11:26;10.07;;;8.20;;
48122;SDS011;33907;47.426;18.906;2023-04-15T01:13:54;10.40;;;8.13;;
48122;SDS011;33907;47.426;18.906;2023-04-15T01:16:23;10.25;;;7.78;;
48122;SDS011;33907;47.426;18.906;2023-04-15T01:18:51;10.88;;;8.57;;
48122;SDS011;33907;47.426;18.906;2023-04-15T01:21:18;10.52;;;8.05;;
48122;SDS011;33907;47.426;18.906;2023-04-15T01:23:47;10.80;;;7.78;;
48122;SDS011;33907;47.426;18.906;2023-04-15T01:26:15;10.73;;;8.32;;
48122;SDS011;33907;47.426;18.906;2023-04-15T01:28:45;12.48;;;8.70;;
48122;SDS011;33907;47.426;18.906;2023-04-15T01:31:13;11.10;;;8.85;;
48122;SDS011;33907;47.426;18.906;2023-04-15T01:33:41;11.43;;;8.45;;
48122;SDS011;33907;47.426;18.906;2023-04-15T01:36:27;11.95;;;8.13;;
48122;SDS011;33907;47.426;18.906;2023-04-15T01:38:56;14.07;;;8.93;;
48122;SDS011;33907;47.426;18.906;2023-04-15T01:41:27;10.32;;;8.13;;
48122;SDS011;33907;47.426;18.906;2023-04-15T01:43:56;10.32;;;7.78;;
48122;SDS011;33907;47.426;18.906;2023-04-15T01:46:25;9.77;;;7.05;;
48122;SDS011;33907;47.426;18.906;2023-04-15T01:48:54;9.20;;;6.97;;
48122;SDS011;33907;47.426;18.906;2023-04-15T01:51:22;9.27;;;7.03;;
48122;SDS011;33907;47.426;18.906;2023-04-15T01:53:52;10.00;;;6.70;;
48122;SDS011;33907;47.426;18.906;2023-04-15T01:56:21;8.68;;;6.45;;
48122;SDS011;33907;47.426;18.906;2023-04-15T01:58:51;8.75;;;6.72;;
48122;SDS011;33907;47.426;18.906;2023-04-15T02:01:20;9.35;;;6.43;;
48122;SDS011;33907;47.426;18.906;2023-04-15T02:03:49;8.65;;;6.43;;
48122;SDS011;33907;47.426;18.906;2023-04-15T02:06:18;10.38;;;6.87;;
48122;SDS011;33907;47.426;18.906;2023-04-15T02:08:48;11.20;;;7.30;;
48122;SDS011;33907;47.426;18.906;2023-04-15T02:11:17;9.00;;;6.62;;
48122;SDS011;33907;47.426;18.906;2023-04-15T02:13:47;10.88;;;7.05;;
48122;SDS011;33907;47.426;18.906;2023-04-15T02:16:16;9.18;;;6.57;;
48122;SDS011;33907;47.426;18.906;2023-04-15T02:18:46;8.63;;;6.82;;
48122;SDS011;33907;47.426;18.906;2023-04-15T02:21:15;9.75;;;6.90;;
48122;SDS011;33907;47.426;18.906;2023-04-15T02:23:44;11.20;;;6.78;;
48122;SDS011;33907;47.426;18.906;2023-04-15T02:26:15;11.48;;;6.78;;
48122;SDS011;33907;47.426;18.906;2023-04-15T02:28:44;9.70;;;6.95;;
48122;SDS011;33907;47.426;18.906;2023-04-15T02:31:15;9.25;;;7.00;;
48122;SDS011;33907;47.426;18.906;2023-04-15T02:33:44;12.45;;;7.62;;
48122;SDS011;33907;47.426;18.906;2023-04-15T02:36:12;12.35;;;7.62;;
48122;SDS011;33907;47.426;18.906;2023-04-15T02:38:41;11.05;;;8.07;;
48122;SDS011;33907;47.426;18.906;2023-04-15T02:41:11;10.77;;;7.85;;
48122;SDS011;33907;47.426;18.906;2023-04-15T02:43:41;10.85;;;8.60;;
48122;SDS011;33907;47.426;18.906;2023-04-15T02:46:09;11.85;;;8.35;;
48122;SDS011;33907;47.426;18.906;2023-04-15T02:48:42;13.05;;;9.18;;
48122;SDS011;33907;47.426;18.906;2023-04-15T02:51:14;12.50;;;8.90;;
48122;SDS011;33907;47.426;18.906;2023-04-15T02:53:45;15.23;;;9.55;;
48122;SDS011;33907;47.426;18.906;2023-04-15T02:56:16;12.50;;;9.27;;
48122;SDS011;33907;47.426;18.906;2023-04-15T02:58:47;13.65;;;9.18;;
48122;SDS011;33907;47.426;18.906;2023-04-15T03:01:18;13.52;;;9.20;;
48122;SDS011;33907;47.426;18.906;2023-04-15T03:03:48;11.95;;;8.88;;
48122;SDS011;33907;47.426;18.906;2023-04-15T03:06:17;12.05;;;8.80;;
48122;SDS011;33907;47.426;18.906;2023-04-15T03:08:46;12.30;;;8.73;;
48122;SDS011;33907;47.426;18.906;2023-04-15T03:11:15;12.63;;;8.27;;
48122;SDS011;33907;47.426;18.906;2023-04-15T03:13:44;12.70;;;8.98;;
48122;SDS011;33907;47.426;18.906;2023-04-15T03:16:14;13.52;;;9.95;;
48122;SDS011;33907;47.426;18.906;2023-04-15T03:18:44;12.52;;;8.63;;
48122;SDS011;33907;47.426;18.906;2023-04-15T03:21:12;11.50;;;8.98;;
48122;SDS011;33907;47.426;18.906;2023-04-15T03:23:41;11.43;;;9.23;;
48122;SDS011;33907;47.426;18.906;2023-04-15T03:26:34;11.82;;;8.25;;
48122;SDS011;33907;47.426;18.906;2023-04-15T03:29:05;10.70;;;8.65;;
48122;SDS011;33907;47.426;18.906;2023-04-15T03:31:34;11.77;;;9.27;;
48122;SDS011;33907;47.426;18.906;2023-04-15T03:34:03;11.07;;;8.80;;
48122;SDS011;33907;47.426;18.906;2023-04-15T03:36:32;11.23;;;8.95;;
48122;SDS011;33907;47.426;18.906;2023-04-15T03:39:01;11.27;;;7.95;;
48122;SDS011;33907;47.426;18.906;2023-04-15T03:41:31;12.02;;;9.07;;
48122;SDS011;33907;47.426;18.906;2023-04-15T03:44:00;11.35;;;8.65;;
48122;SDS011;33907;47.426;18.906;2023-04-15T03:46:29;12.43;;;8.63;;
48122;SDS011;33907;47.426;18.906;2023-04-15T03:48:58;11.30;;;8.75;;
48122;SDS011;33907;47.426;18.906;2023-04-15T03:51:27;12.00;;;8.20;;
48122;SDS011;33907;47.426;18.906;2023-04-15T03:53:55;10.23;;;7.80;;
48122;SDS011;33907;47.426;18.906;2023-04-15T03:56:24;11.55;;;8.75;;
48122;SDS011;33907;47.426;18.906;2023-04-15T03:58:53;11.00;;;8.40;;
48122;SDS011;33907;47.426;18.906;2023-04-15T04:01:22;12.35;;;8.50;;
48122;SDS011;33907;47.426;18.906;2023-04-15T04:03:51;11.20;;;8.18;;
48122;SDS011;33907;47.426;18.906;2023-04-15T04:06:20;11.52;;;8.60;;
48122;SDS011;33907;47.426;18.906;2023-04-15T04:08:49;13.07;;;9.85;;
48122;SDS011;33907;47.426;18.906;2023-04-15T04:11:18;12.88;;;9.30;;
48122;SDS011;33907;47.426;18.906;2023-04-15T04:13:46;12.80;;;8.85;;
48122;SDS011;33907;47.426;18.906;2023-04-15T04:16:15;11.50;;;9.07;;
48122;SDS011;33907;47.426;18.906;2023-04-15T04:18:44;11.95;;;9.48;;
48122;SDS011;33907;47.426;18.906;2023-04-15T04:21:13;12.65;;;8.88;;
48122;SDS011;33907;47.426;18.906;2023-04-15T04:23:41;11.30;;;8.38;;
48122;SDS011;33907;47.426;18.906;2023-04-15T04:26:10;11.68;;;8.27;;
48122;SDS011;33907;47.426;18.906;2023-04-15T04:28:39;11.80;;;7.28;;
48122;SDS011;33907;47.426;18.906;2023-04-15T04:31:08;9.68;;;7.37;;
48122;SDS011;33907;47.426;18.906;2023-04-15T04:33:37;11.68;;;7.43;;
48122;SDS011;33907;47.426;18.906;2023-04-15T04:36:06;10.90;;;8.38;;
48122;SDS011;33907;47.426;18.906;2023-04-15T04:38:35;11.88;;;9.20;;
48122;SDS011;33907;47.426;18.906;2023-04-15T04:41:04;11.70;;;8.70;;
48122;SDS011;33907;47.426;18.906;2023-04-15T04:43:33;12.27;;;9.25;;
48122;SDS011;33907;47.426;18.906;2023-04-15T04:46:01;12.50;;;9.02;;
48122;SDS011;33907;47.426;18.906;2023-04-15T04:48:30;11.75;;;9.38;;
48122;SDS011;33907;47.426;18.906;2023-04-15T04:50:59;13.62;;;9.93;;
48122;SDS011;33907;47.426;18.906;2023-04-15T04:53:28;14.57;;;10.32;;
48122;SDS011;33907;47.426;18.906;2023-04-15T04:55:57;13.52;;;11.10;;
48122;SDS011;33907;47.426;18.906;2023-04-15T04:58:26;14.45;;;11.00;;
48122;SDS011;33907;47.426;18.906;2023-04-15T05:00:55;16.37;;;11.75;;
48122;SDS011;33907;47.426;18.906;2023-04-15T05:03:24;15.63;;;12.65;;
48122;SDS011;33907;47.426;18.906;2023-04-15T05:05:53;15.90;;;11.98;;
48122;SDS011;33907;47.426;18.906;2023-04-15T05:08:22;14.73;;;11.98;;
48122;SDS011;33907;47.426;18.906;2023-04-15T05:10:51;14.65;;;11.43;;
48122;SDS011;33907;47.426;18.906;2023-04-15T05:13:19;15.50;;;12.50;;
48122;SDS011;33907;47.426;18.906;2023-04-15T05:15:49;15.88;;;12.60;;
48122;SDS011;33907;47.426;18.906;2023-04-15T05:18:18;17.58;;;11.93;;
48122;SDS011;33907;47.426;18.906;2023-04-15T05:20:47;14.85;;;11.48;;
48122;SDS011;33907;47.426;18.906;2023-04-15T05:23:17;15.77;;;12.48;;
48122;SDS011;33907;47.426;18.906;2023-04-15T05:25:46;15.10;;;12.48;;
48122;SDS011;33907;47.426;18.906;2023-04-15T05:28:15;15.95;;;13.38;;
48122;SDS011;33907;47.426;18.906;2023-04-15T05:30:44;16.30;;;13.18;;
48122;SDS011;33907;47.426;18.906;2023-04-15T05:33:13;16.02;;;11.45;;
48122;SDS011;33907;47.426;18.906;2023-04-15T05:35:42;14.90;;;12.50;;
48122;SDS011;33907;47.426;18.906;2023-04-15T05:38:11;17.85;;;13.52;;
48122;SDS011;33907;47.426;18.906;2023-04-15T05:40:39;15.95;;;13.38;;
48122;SDS011;33907;47.426;18.906;2023-04-15T05:43:08;15.23;;;12.32;;
48122;SDS011;33907;47.426;18.906;2023-04-15T05:45:37;18.40;;;15.77;;
48122;SDS011;33907;47.426;18.906;2023-04-15T05:48:06;20.55;;;15.43;;
48122;SDS011;33907;47.426;18.906;2023-04-15T05:50:35;15.57;;;12.75;;
48122;SDS011;33907;47.426;18.906;2023-04-15T05:53:04;15.25;;;12.98;;
48122;SDS011;33907;47.426;18.906;2023-04-15T05:55:33;15.02;;;12.52;;
48122;SDS011;33907;47.426;18.906;2023-04-15T05:58:01;16.05;;;13.13;;
48122;SDS011;33907;47.426;18.906;2023-04-15T06:00:31;15.65;;;12.15;;
48122;SDS011;33907;47.426;18.906;2023-04-15T06:03:00;14.68;;;11.55;;
48122;SDS011;33907;47.426;18.906;2023-04-15T06:05:29;15.07;;;12.05;;
48122;SDS011;33907;47.426;18.906;2023-04-15T06:07:57;12.95;;;10.40;;
48122;SDS011;33907;47.426;18.906;2023-04-15T06:10:26;12.70;;;10.32;;
48122;SDS011;33907;47.426;18.906;2023-04-15T06:12:55;12.95;;;10.55;;
48122;SDS011;33907;47.426;18.906;2023-04-15T06:15:24;11.25;;;9.23;;
48122;SDS011;33907;47.426;18.906;2023-04-15T06:17:53;11.15;;;9.23;;
48122;SDS011;33907;47.426;18.906;2023-04-15T06:20:22;11.52;;;9.23;;
48122;SDS011;33907;47.426;18.906;2023-04-15T06:22:51;11.82;;;8.90;;
48122;SDS011;33907;47.426;18.906;2023-04-15T06:25:20;11.20;;;7.70;;
48122;SDS011;33907;47.426;18.906;2023-04-15T06:27:48;9.60;;;7.60;;
48122;SDS011;33907;47.426;18.906;2023-04-15T06:30:17;10.88;;;8.27;;
48122;SDS011;33907;47.426;18.906;2023-04-15T06:32:46;8.77;;;7.05;;
48122;SDS011;33907;47.426;18.906;2023-04-15T06:35:16;9.75;;;7.82;;
48122;SDS011;33907;47.426;18.906;2023-04-15T06:37:45;10.13;;;7.55;;
48122;SDS011;33907;47.426;18.906;2023-04-15T06:40:14;12.48;;;7.45;;
48122;SDS011;33907;47.426;18.906;2023-04-15T06:42:43;12.45;;;8.63;;
48122;SDS011;33907;47.426;18.906;2023-04-15T06:45:11;13.38;;;8.40;;
48122;SDS011;33907;47.426;18.906;2023-04-15T06:47:40;11.60;;;8.38;;
48122;SDS011;33907;47.426;18.906;2023-04-15T06:50:09;10.38;;;6.20;;
48122;SDS011;33907;47.426;18.906;2023-04-15T06:52:39;9.85;;;6.85;;
48122;SDS011;33907;47.426;18.906;2023-04-15T06:55:08;12.30;;;7.80;;
48122;SDS011;33907;47.426;18.906;2023-04-15T06:57:37;11.35;;;7.45;;
48122;SDS011;33907;47.426;18.906;2023-04-15T07:00:06;10.48;;;7.95;;
48122;SDS011;33907;47.426;18.906;2023-04-15T07:02:35;14.18;;;8.65;;
48122;SDS011;33907;47.426;18.906;2023-04-15T07:05:05;13.77;;;8.23;;
48122;SDS011;33907;47.426;18.906;2023-04-15T07:07:34;13.55;;;8.85;;
48122;SDS011;33907;47.426;18.906;2023-04-15T07:10:03;16.92;;;8.60;;
48122;SDS011;33907;47.426;18.906;2023-04-15T07:12:33;12.10;;;7.37;;
48122;SDS011;33907;47.426;18.906;2023-04-15T07:15:03;11.95;;;6.55;;
48122;SDS011;33907;47.426;18.906;2023-04-15T07:17:32;13.07;;;6.85;;
48122;SDS011;33907;47.426;18.906;2023-04-15T07:20:02;11.25;;;7.30;;
48122;SDS011;33907;47.426;18.906;2023-04-15T07:22:32;11.35;;;5.90;;
48122;SDS011;33907;47.426;18.906;2023-04-15T07:25:01;11.60;;;7.15;;
48122;SDS011;33907;47.426;18.906;2023-04-15T07:27:30;12.20;;;6.10;;
48122;SDS011;33907;47.426;18.906;2023-04-15T07:29:59;11.18;;;5.68;;
48122;SDS011;33907;47.426;18.906;2023-04-15T07:32:28;10.80;;;5.32;;
48122;SDS011;33907;47.426;18.906;2023-04-15T07:34:56;13.65;;;5.80;;
48122;SDS011;33907;47.426;18.906;2023-04-15T07:37:25;10.80;;;6.03;;
48122;SDS011;33907;47.426;18.906;2023-04-15T07:39:55;10.32;;;5.55;;
48122;SDS011;33907;47.426;18.906;2023-04-15T07:42:24;11.95;;;7.68;;
48122;SDS011;33907;47.426;18.906;2023-04-15T07:44:53;12.88;;;8.23;;
48122;SDS011;33907;47.426;18.906;2023-04-15T07:47:22;15.38;;;9.75;;
48122;SDS011;33907;47.426;18.906;2023-04-15T07:49:51;13.32;;;8.95;;
48122;SDS011;33907;47.426;18.906;2023-04-15T07:52:20;15.65;;;8.85;;
48122;SDS011;33907;47.426;18.906;2023-04-15T07:54:49;11.95;;;7.82;;
48122;SDS011;33907;47.426;18.906;2023-04-15T07:57:18;11.38;;;7.15;;
48122;SDS011;33907;47.426;18.906;2023-04-15T07:59:47;11.40;;;6.28;;
48122;SDS011;33907;47.426;18.906;2023-04-15T08:02:16;9.85;;;6.78;;
48122;SDS011;33907;47.426;18.906;2023-04-15T08:04:46;12.27;;;5.93;;
48122;SDS011;33907;47.426;18.906;2023-04-15T08:07:15;10.20;;;5.57;;
48122;SDS011;33907;47.426;18.906;2023-04-15T08:09:44;7.95;;;5.82;;
48122;SDS011;33907;47.426;18.906;2023-04-15T08:12:13;9.45;;;4.93;;
48122;SDS011;33907;47.426;18.906;2023-04-15T08:14:43;7.32;;;4.25;;
48122;SDS011;33907;47.426;18.906;2023-04-15T08:17:11;7.65;;;4.25;;
48122;SDS011;33907;47.426;18.906;2023-04-15T08:19:40;6.75;;;4.40;;
48122;SDS011;33907;47.426;18.906;2023-04-15T08:22:10;7.15;;;4.37;;
48122;SDS011;33907;47.426;18.906;2023-04-15T08:27:14;6.78;;;3.20;;
48122;SDS011;33907;47.426;18.906;2023-04-15T08:29:44;5.10;;;2.65;;
48122;SDS011;33907;47.426;18.906;2023-04-15T08:32:13;3.75;;;2.10;;
48122;SDS011;33907;47.426;18.906;2023-04-15T08:34:42;4.35;;;2.12;;
48122;SDS011;33907;47.426;18.906;2023-04-15T08:37:11;4.70;;;2.15;;
48122;SDS011;33907;47.426;18.906;2023-04-15T08:39:40;3.42;;;1.87;;
48122;SDS011;33907;47.426;18.906;2023-04-15T08:42:10;5.45;;;2.10;;
48122;SDS011;33907;47.426;18.906;2023-04-15T08:44:39;4.00;;;2.22;;
48122;SDS011;33907;47.426;18.906;2023-04-15T08:47:09;4.60;;;2.40;;
48122;SDS011;33907;47.426;18.906;2023-04-15T08:49:42;3.80;;;2.05;;
48122;SDS011;33907;47.426;18.906;2023-04-15T08:52:11;4.07;;;2.58;;
48122;SDS011;33907;47.426;18.906;2023-04-15T08:54:40;6.65;;;2.35;;
48122;SDS011;33907;47.426;18.906;2023-04-15T08:57:09;6.47;;;2.80;;
48122;SDS011;33907;47.426;18.906;2023-04-15T08:59:38;6.97;;;4.32;;
48122;SDS011;33907;47.426;18.906;2023-04-15T09:02:07;6.00;;;3.85;;
48122;SDS011;33907;47.426;18.906;2023-04-15T09:04:37;6.90;;;3.60;;
48122;SDS011;33907;47.426;18.906;2023-04-15T09:07:06;6.18;;;3.75;;
48122;SDS011;33907;47.426;18.906;2023-04-15T09:09:35;6.15;;;4.00;;
48122;SDS011;33907;47.426;18.906;2023-04-15T09:12:04;5.55;;;3.35;;
48122;SDS011;33907;47.426;18.906;2023-04-15T09:14:33;6.35;;;3.58;;
48122;SDS011;33907;47.426;18.906;2023-04-15T09:17:03;6.07;;;3.55;;
48122;SDS011;33907;47.426;18.906;2023-04-15T09:19:32;6.75;;;3.53;;
48122;SDS011;33907;47.426;18.906;2023-04-15T09:22:02;6.85;;;3.70;;
48122;SDS011;33907;47.426;18.906;2023-04-15T09:24:37;3.80;;;2.12;;
48122;SDS011;33907;47.426;18.906;2023-04-15T09:27:08;3.80;;;1.98;;
48122;SDS011;33907;47.426;18.906;2023-04-15T09:29:37;3.65;;;1.45;;
48122;SDS011;33907;47.426;18.906;2023-04-15T09:32:12;3.17;;;1.52;;
48122;SDS011;33907;47.426;18.906;2023-04-15T09:34:42;3.33;;;1.67;;
48122;SDS011;33907;47.426;18.906;2023-04-15T09:37:11;4.15;;;1.77;;
48122;SDS011;33907;47.426;18.906;2023-04-15T09:39:59;2.95;;;1.60;;
48122;SDS011;33907;47.426;18.906;2023-04-15T09:42:28;4.03;;;1.77;;
48122;SDS011;33907;47.426;18.906;2023-04-15T09:45:06;2.42;;;1.02;;
48122;SDS011;33907;47.426;18.906;2023-04-15T09:47:37;2.85;;;1.52;;
48122;SDS011;33907;47.426;18.906;2023-04-15T09:50:06;6.05;;;2.28;;
48122;SDS011;33907;47.426;18.906;2023-04-15T09:52:39;4.57;;;2.00;;
48122;SDS011;33907;47.426;18.906;2023-04-15T09:55:10;4.18;;;2.08;;
48122;SDS011;33907;47.426;18.906;2023-04-15T09:57:40;5.32;;;2.65;;
48122;SDS011;33907;47.426;18.906;2023-04-15T10:00:09;4.87;;;2.10;;
48122;SDS011;33907;47.426;18.906;2023-04-15T10:02:39;6.18;;;2.78;;
48122;SDS011;33907;47.426;18.906;2023-04-15T10:05:09;4.05;;;1.90;;
48122;SDS011;33907;47.426;18.906;2023-04-15T10:07:39;4.07;;;1.80;;
48122;SDS011;33907;47.426;18.906;2023-04-15T10:10:10;4.53;;;1.60;;
48122;SDS011;33907;47.426;18.906;2023-04-15T10:12:39;7.07;;;2.53;;
48122;SDS011;33907;47.426;18.906;2023-04-15T10:15:11;3.72;;;1.90;;
48122;SDS011;33907;47.426;18.906;2023-04-15T10:17:44;2.87;;;1.30;;
48122;SDS011;33907;47.426;18.906;2023-04-15T10:20:13;2.03;;;1.10;;
48122;SDS011;33907;47.426;18.906;2023-04-15T10:22:43;4.55;;;1.70;;
48122;SDS011;33907;47.426;18.906;2023-04-15T10:25:12;3.95;;;2.00;;
48122;SDS011;33907;47.426;18.906;2023-04-15T10:27:42;4.10;;;1.95;;
48122;SDS011;33907;47.426;18.906;2023-04-15T10:30:11;3.85;;;2.15;;
48122;SDS011;33907;47.426;18.906;2023-04-15T10:32:40;3.87;;;1.85;;
48122;SDS011;33907;47.426;18.906;2023-04-15T10:35:10;4.85;;;2.12;;
48122;SDS011;33907;47.426;18.906;2023-04-15T10:37:39;3.60;;;1.80;;
48122;SDS011;33907;47.426;18.906;2023-04-15T10:40:27;2.95;;;1.25;;
48122;SDS011;33907;47.426;18.906;2023-04-15T10:42:59;2.78;;;1.42;;
48122;SDS011;33907;47.426;18.906;2023-04-15T10:45:33;3.33;;;1.58;;
48122;SDS011;33907;47.426;18.906;2023-04-15T10:48:06;2.40;;;1.40;;
48122;SDS011;33907;47.426;18.906;2023-04-15T10:50:36;2.90;;;1.02;;
48122;SDS011;33907;47.426;18.906;2023-04-15T10:53:05;3.30;;;1.40;;
48122;SDS011;33907;47.426;18.906;2023-04-15T10:55:37;2.90;;;1.42;;
48122;SDS011;33907;47.426;18.906;2023-04-15T10:58:06;5.18;;;2.30;;
48122;SDS011;33907;47.426;18.906;2023-04-15T11:00:37;16.95;;;8.40;;
48122;SDS011;33907;47.426;18.906;2023-04-15T11:03:08;4.72;;;2.30;;
48122;SDS011;33907;47.426;18.906;2023-04-15T11:08:09;3.85;;;2.62;;
48122;SDS011;33907;47.426;18.906;2023-04-15T11:18:09;2.62;;;1.20;;
48122;SDS011;33907;47.426;18.906;2023-04-15T11:20:41;3.17;;;1.73;;
48122;SDS011;33907;47.426;18.906;2023-04-15T11:23:16;3.53;;;1.70;;
48122;SDS011;33907;47.426;18.906;2023-04-15T11:25:46;2.97;;;1.48;;
48122;SDS011;33907;47.426;18.906;2023-04-15T11:28:16;2.40;;;1.20;;
48122;SDS011;33907;47.426;18.906;2023-04-15T11:30:44;3.22;;;1.50;;
48122;SDS011;33907;47.426;18.906;2023-04-15T11:33:13;5.30;;;2.05;;
48122;SDS011;33907;47.426;18.906;2023-04-15T11:35:42;3.85;;;1.60;;
48122;SDS011;33907;47.426;18.906;2023-04-15T11:38:12;2.50;;;1.15;;
48122;SDS011;33907;47.426;18.906;2023-04-15T11:40:42;4.15;;;1.40;;
48122;SDS011;33907;47.426;18.906;2023-04-15T11:43:15;3.42;;;2.03;;
48122;SDS011;33907;47.426;18.906;2023-04-15T11:45:52;4.22;;;1.33;;
48122;SDS011;33907;47.426;18.906;2023-04-15T11:48:24;3.67;;;1.30;;
48122;SDS011;33907;47.426;18.906;2023-04-15T11:50:54;3.10;;;1.35;;
48122;SDS011;33907;47.426;18.906;2023-04-15T11:53:24;2.92;;;1.30;;
48122;SDS011;33907;47.426;18.906;2023-04-15T11:56:03;5.82;;;2.33;;
48122;SDS011;33907;47.426;18.906;2023-04-15T11:58:33;2.62;;;1.02;;
48122;SDS011;33907;47.426;18.906;2023-04-15T12:01:01;4.78;;;1.50;;
48122;SDS011;33907;47.426;18.906;2023-04-15T12:03:30;3.12;;;1.42;;
48122;SDS011;33907;47.426;18.906;2023-04-15T12:06:04;4.00;;;1.60;;
48122;SDS011;33907;47.426;18.906;2023-04-15T12:11:14;3.45;;;1.48;;
48122;SDS011;33907;47.426;18.906;2023-04-15T12:14:09;5.87;;;1.87;;
48122;SDS011;33907;47.426;18.906;2023-04-15T12:16:49;5.00;;;2.10;;
48122;SDS011;33907;47.426;18.906;2023-04-15T12:19:29;3.90;;;2.00;;
48122;SDS011;33907;47.426;18.906;2023-04-15T12:22:08;5.60;;;2.42;;
48122;SDS011;33907;47.426;18.906;2023-04-15T12:24:41;3.22;;;1.40;;
48122;SDS011;33907;47.426;18.906;2023-04-15T12:27:24;2.90;;;1.20;;
48122;SDS011;33907;47.426;18.906;2023-04-15T12:30:02;2.75;;;1.37;;
48122;SDS011;33907;47.426;18.906;2023-04-15T12:32:33;4.35;;;1.98;;
48122;SDS011;33907;47.426;18.906;2023-04-15T12:35:01;4.32;;;1.48;;
48122;SDS011;33907;47.426;18.906;2023-04-15T12:37:29;2.95;;;1.42;;
48122;SDS011;33907;47.426;18.906;2023-04-15T12:39:57;4.57;;;1.90;;
48122;SDS011;33907;47.426;18.906;2023-04-15T12:42:24;4.65;;;1.60;;
48122;SDS011;33907;47.426;18.906;2023-04-15T12:44:59;3.45;;;1.40;;
48122;SDS011;33907;47.426;18.906;2023-04-15T12:47:27;3.30;;;1.40;;
48122;SDS011;33907;47.426;18.906;2023-04-15T12:49:54;5.28;;;2.53;;
48122;SDS011;33907;47.426;18.906;2023-04-15T12:52:22;4.75;;;1.98;;
48122;SDS011;33907;47.426;18.906;2023-04-15T12:54:51;5.62;;;2.58;;
48122;SDS011;33907;47.426;18.906;2023-04-15T12:57:19;3.58;;;1.87;;
48122;SDS011;33907;47.426;18.906;2023-04-15T12:59:47;5.32;;;2.50;;
48122;SDS011;33907;47.426;18.906;2023-04-15T13:02:15;4.47;;;1.90;;
48122;SDS011;33907;47.426;18.906;2023-04-15T13:04:43;4.78;;;2.10;;
48122;SDS011;33907;47.426;18.906;2023-04-15T13:07:11;5.70;;;2.15;;
48122;SDS011;33907;47.426;18.906;2023-04-15T13:09:40;4.03;;;1.90;;
48122;SDS011;33907;47.426;18.906;2023-04-15T13:12:07;4.30;;;1.77;;
48122;SDS011;33907;47.426;18.906;2023-04-15T13:14:35;3.67;;;1.77;;
48122;SDS011;33907;47.426;18.906;2023-04-15T13:17:03;3.40;;;1.70;;
48122;SDS011;33907;47.426;18.906;2023-04-15T13:19:37;4.45;;;1.52;;
48122;SDS011;33907;47.426;18.906;2023-04-15T13:22:05;2.97;;;1.42;;
48122;SDS011;33907;47.426;18.906;2023-04-15T13:24:34;3.47;;;1.30;;
48122;SDS011;33907;47.426;18.906;2023-04-15T13:27:02;3.20;;;1.35;;
48122;SDS011;33907;47.426;18.906;2023-04-15T13:29:30;3.15;;;1.40;;
48122;SDS011;33907;47.426;18.906;2023-04-15T13:31:58;3.60;;;1.40;;
48122;SDS011;33907;47.426;18.906;2023-04-15T13:34:27;3.47;;;1.70;;
48122;SDS011;33907;47.426;18.906;2023-04-15T13:36:56;3.65;;;1.60;;
48122;SDS011;33907;47.426;18.906;2023-04-15T13:39:23;3.95;;;1.37;;
48122;SDS011;33907;47.426;18.906;2023-04-15T13:41:50;4.18;;;1.77;;
48122;SDS011;33907;47.426;18.906;2023-04-15T13:44:18;3.22;;;1.40;;
48122;SDS011;33907;47.426;18.906;2023-04-15T13:46:48;3.12;;;1.20;;
48122;SDS011;33907;47.426;18.906;2023-04-15T13:49:15;2.87;;;1.30;;
48122;SDS011;33907;47.426;18.906;2023-04-15T13:51:43;2.35;;;1.10;;
48122;SDS011;33907;47.426;18.906;2023-04-15T13:54:11;4.30;;;1.50;;
48122;SDS011;33907;47.426;18.906;2023-04-15T13:56:39;3.72;;;1.40;;
48122;SDS011;33907;47.426;18.906;2023-04-15T13:59:07;2.65;;;1.27;;
48122;SDS011;33907;47.426;18.906;2023-04-15T14:01:34;3.20;;;1.00;;
48122;SDS011;33907;47.426;18.906;2023-04-15T14:04:02;3.17;;;1.30;;
48122;SDS011;33907;47.426;18.906;2023-04-15T14:06:31;2.55;;;1.00;;
48122;SDS011;33907;47.426;18.906;2023-04-15T14:08:58;2.22;;;1.10;;
48122;SDS011;33907;47.426;18.906;2023-04-15T14:11:26;2.25;;;1.00;;
48122;SDS011;33907;47.426;18.906;2023-04-15T14:13:55;2.58;;;1.02;;
48122;SDS011;33907;47.426;18.906;2023-04-15T14:16:22;2.60;;;1.00;;
48122;SDS011;33907;47.426;18.906;2023-04-15T14:18:50;2.72;;;1.12;;
48122;SDS011;33907;47.426;18.906;2023-04-15T14:21:17;2.72;;;1.30;;
48122;SDS011;33907;47.426;18.906;2023-04-15T14:23:45;2.42;;;1.00;;
48122;SDS011;33907;47.426;18.906;2023-04-15T14:26:12;2.37;;;1.00;;
48122;SDS011;33907;47.426;18.906;2023-04-15T14:28:41;4.25;;;1.23;;
48122;SDS011;33907;47.426;18.906;2023-04-15T14:31:12;6.00;;;1.37;;
48122;SDS011;33907;47.426;18.906;2023-04-15T14:33:40;2.12;;;1.10;;
48122;SDS011;33907;47.426;18.906;2023-04-15T14:36:08;3.03;;;1.30;;
48122;SDS011;33907;47.426;18.906;2023-04-15T14:38:36;3.10;;;1.37;;
48122;SDS011;33907;47.426;18.906;2023-04-15T14:41:07;2.90;;;1.23;;
48122;SDS011;33907;47.426;18.906;2023-04-15T14:43:35;2.25;;;1.10;;
48122;SDS011;33907;47.426;18.906;2023-04-15T14:46:03;2.83;;;1.00;;
48122;SDS011;33907;47.426;18.906;2023-04-15T14:48:31;3.35;;;1.10;;
48122;SDS011;33907;47.426;18.906;2023-04-15T14:50:59;3.47;;;1.27;;
48122;SDS011;33907;47.426;18.906;2023-04-15T14:53:27;3.03;;;1.10;;
48122;SDS011;33907;47.426;18.906;2023-04-15T14:55:55;2.67;;;1.10;;